Offutt Air Force Base
KOFF : now visible

Airfield :











YOU CAN JOIN US ON...

 
LOGIN :

Register | Disclaimer

   EN    FR    IT 

 









Legend :    VFR   Marginal VFR   IFR   Intensive IFR   Very Intensive IFR
Visi :
Ceiling :
>= 8 km
>= 3000ft
5 to 8 km
1000 to 3000 ft
1500m to 5 km
500 to 1000 ft
800 to 1500m
200 to 500 ft
< 800m
< 200 ft
Symbols :   Thunderstorms  Fog  Heavy snow  Heavy precipitations  Wind > 20 kt






- Airport Elevation : 1052 ft


KOFF - Offutt Air Force Base

CURRENT METAR :
  • 260505Z 13014G30KT 10SM SCT055 OVC120 19/15 A2951 RMK AO2A RAE05 PRESRR SLP991 $

EXPIRED METARs :
  • 260455Z 11023G34KT 10SM -RA FEW003 BKN070 OVC120 18/15 A2946 RMK AO2A PK WND 18038/17 RAB01 TSB01E41 PRESFR SLP974 P0014 T01810152 $
  • 260428Z 12022G30KT 6SM -TSRA FEW002 OVC070 19/14 A2965 RMK AO2A WSHFT 20 RAB01 TSB01 SLP038 $
  • 260401Z 15010KT 10SM -TSRA BKN039 BKN048 OVC060 23/11 A2960 RMK AO2A RAB01 TSB0401 SLP020 $
  • 260355Z 10008KT 10SM BKN039 OVC050 22/11 A2960 RMK AO2A SLP020 T02230107 $
  • 260255Z 09008KT 10SM OVC050 22/11 A2961 RMK AO2A SLP025 T02200111 58001 $
  • 260155Z 10010KT 10SM CLR 22/10 A2958 RMK AO2A SLP015 T02210102 $
  • 260055Z 11007KT 10SM CLR 24/10 A2962 RMK AO2A SLP030 T02380101 $

TAF TAF KOFF
Valid from the 26 at 02:00 until the 27 at 08:00 UTC


260200Z 2602/2708 13010G18KT 9999 FEW030 QNH2958INS
TEMPO 2602/2604 13015G25KT
BECMG 2603/2604 VRB20G35KT 6000 TSRA BKN030CB OVC050 QNH2958INS
TEMPO 2604/2607 3200 TSRAGR BKN015CB
BECMG 2606/2607 08010G15KT 9000 -TSRA SCT030CB OVC050 QNH2954INS
BECMG 2609/2610 08010G15KT 9000 SHRA SCT030 BKN050 QNH2950INS
BECMG 2611/2612 06009KT 9999 NSW SCT030 BKN050 QNH2951INS
BECMG 2615/2616 36009KT 9999 SKC QNH2955INS
BECMG 2623/2624 36009KT 9999 SCT030 QNH2964INS TX23/2622Z TN17/2608Z
KZMP FIR / North America



MET'MAP, your aeronautical weather chart ! - Copyright ORBIFLY December 2007 - Disclaimer

ORBIFLY MET'MAP TEAM :

Programming & Development : Alexandra Zaïnal
Original concept : Baudouin d'Aumeries
Technical & hardware support : Manuel Goepfert
Assistance : Marc-Olivier Méhu




SOURCES & CREDITS :

   NOAA       Earth
Advisory